Detall de PIREP

Printer-friendly versionPDF version

[2013/03/11 10:11:00]
Flight IATA:CT0001
Pilot Number:042
Company ICAO:CAT
Aircraft Type:A320/E
PAX:77
Departing Airport: LEAL
Destination Airport: LEMH
Alternate Airport:LEPA
Online: VATSIM
Route:MITOS B46 PTC
Flight Level:F230
No Slew and time accel
No pause
Crash detect
Detect pilot in Cockpit between each 30 and 45 minutes
10:11 Zero fuel Weight: 143851 Lbs, Fuel Weight: 42153 Lbs
10:11 VATSIM:LEAL 111000Z 23009KT 200V270 9999 FEW040 SCT055 16/05 Q1009 NOSIG
10:11 VATSIM:LEMH 111000Z 26014G27KT 230V290 9999 FEW020 15/10 Q1004
10:12 VOICE CATALONIAN
10:26 Parking Brakes off
10:32 Take-off
10:32 Take off Weight: 184616 Lbs
10:32 Wind: 193º @ 005 Knots Heading: 277º
10:32 POS N38º 17´ 08´´ W000º 35´ 04´´
10:32 Gear Up: 195 Knots
10:32 Flaps:2 at 195 Knots
10:33 Flaps:1 at 199 Knots
10:33 Flaps:0 at 234 Knots
10:45 TOC
10:45 Fuel Weight: 37074 Lb
10:45 TOD
10:45 Fuel Weight: 37067 Lb
10:45 TOC
10:45 Fuel Weight: 37058 Lb
10:47 Wind:297º@046 Knots Heading: 062º Ground Speed: 407 Knots Altitude 22864 ft
11:00 TOD
11:00 Fuel Weight: 34784 Lb
11:00 TOC
11:00 Fuel Weight: 34778 Lb
11:01 TOD
11:01 Fuel Weight: 34605 Lb
11:01 TOC
11:01 Fuel Weight: 34602 Lb
11:02 Wind:311º@057 Knots Heading: 063º Ground Speed: 485 Knots Altitude 22788 ft
11:03 TOD
11:03 Fuel Weight: 34272 Lb
11:03 TOC
11:03 Fuel Weight: 34268 Lb
11:04 TOD
11:04 Fuel Weight: 34122 Lb
11:04 TOC
11:04 Fuel Weight: 34105 Lb
11:05 TOD
11:05 Fuel Weight: 34014 Lb
11:05 TOC
11:05 Fuel Weight: 34011 Lb
11:06 TOD
11:06 Fuel Weight: 33929 Lb
11:17 Wind:315º@024 Knots Heading: 072º Ground Speed: 276 Knots Altitude 6184 ft
11:19 Flaps:1 at 219 Knots
11:22 Flaps:3 at 181 Knots
11:23 Gear Down: 174 Knots
11:23 Flaps:4 at 174 Knots
11:24 Flaps:5 at 156Knots
11:26 TouchDown:Rate -559 ft/min Speed: 150 Knots
11:26 VATSIM:LEMH 111100Z 26016G26KT 230V310 9999 FEW020 15/08 Q1004
11:26 Land
11:26 Wind:211º@009 Knots
11:26 Heading: 188º
11:26 Flight Duration: 00:54
11:26 Landing Weight: 176067 Lbs
11:26 POS N39º 51´ 41´´ E004º 13´ 06´´
11:31 Parking brakes on
11:31 Block to Block Duration: 01:05
11:31 Final Fuel: 31521 Lbls
11:31 Spent Fuel: 10632 Lbls
11:31 Flight Length: 315 NM
11:31 TOD Land Length: 87 NM

Exportar CSV

Powered by Drupal - Modified by Danger4k